createdAt,value
2022-09-19T08:23:32.683Z,3.05
2022-09-19T08:26:03.725Z,3.17
2022-09-19T08:28:32.175Z,2.97
2022-09-19T08:31:00.926Z,2.70
2022-09-19T08:33:30.040Z,2.85
2022-09-19T08:36:00.668Z,2.83
2022-09-19T08:38:40.930Z,3.15
2022-09-19T08:41:28.793Z,3.00
2022-09-19T08:44:04.275Z,2.88
2022-09-19T08:46:56.290Z,2.85
2022-09-19T08:49:46.709Z,2.53
2022-09-19T08:52:34.274Z,2.40
2022-09-19T08:55:21.044Z,2.58
2022-09-19T08:57:55.508Z,2.50
2022-09-19T09:00:25.724Z,2.28
2022-09-19T09:03:22.152Z,2.60
2022-09-19T09:06:11.172Z,3.13
2022-09-19T09:08:50.375Z,2.85
2022-09-19T09:11:34.698Z,2.25
2022-09-19T09:17:27.284Z,2.05
2022-09-19T09:20:25.300Z,2.42
2022-09-19T09:23:13.078Z,1.90
2022-09-19T09:25:45.664Z,2.20
2022-09-19T09:28:26.650Z,2.10
2022-09-19T09:31:11.438Z,2.08
2022-09-19T09:34:00.252Z,1.88
2022-09-19T09:36:35.411Z,1.80
2022-09-19T09:39:13.212Z,1.63
2022-09-19T09:41:46.757Z,1.90
2022-09-19T09:44:32.051Z,1.90
2022-09-19T09:47:06.568Z,1.95
2022-09-19T09:49:35.082Z,1.70
2022-09-19T09:52:31.617Z,1.98
2022-09-19T09:55:31.110Z,2.00
2022-09-19T09:58:08.249Z,1.85
2022-09-19T10:01:03.558Z,1.85
2022-09-19T10:03:40.180Z,2.22
2022-09-19T10:06:15.066Z,1.52
2022-09-19T10:08:52.547Z,1.60
2022-09-19T10:14:19.484Z,2.15
2022-09-19T10:16:54.275Z,1.75
2022-09-19T10:19:28.917Z,1.88
2022-09-19T10:21:57.886Z,1.75
2022-09-19T10:24:46.582Z,1.60
2022-09-19T10:27:17.350Z,2.20
2022-09-19T10:30:00.185Z,1.85
2022-09-19T10:32:38.591Z,1.92
2022-09-19T10:35:27.444Z,1.80
2022-09-19T10:38:01.233Z,2.08
2022-09-19T10:40:31.408Z,1.52
2022-09-19T10:43:00.962Z,1.20
2022-09-19T10:45:32.449Z,1.60
2022-09-19T10:48:11.134Z,2.20
2022-09-19T10:50:44.787Z,1.88
2022-09-19T10:53:19.986Z,1.40
2022-09-19T10:55:49.388Z,2.10
2022-09-19T10:58:20.462Z,1.95
2022-09-19T11:00:53.369Z,2.05
2022-09-19T11:03:26.845Z,1.88
2022-09-19T11:06:07.457Z,2.00
2022-09-19T11:08:43.771Z,2.40
2022-09-19T11:11:24.245Z,2.38
2022-09-19T11:14:10.702Z,2.08
2022-09-19T11:16:45.044Z,2.00
2022-09-19T11:19:30.171Z,2.00
2022-09-19T11:22:09.215Z,1.75
2022-09-19T11:24:50.854Z,2.47
2022-09-19T11:27:47.217Z,2.47
2022-09-19T11:30:19.485Z,1.92
2022-09-19T11:36:24.095Z,2.00
2022-09-19T11:42:02.466Z,1.60
2022-09-19T11:44:46.366Z,2.03
2022-09-19T11:47:38.290Z,2.05
2022-09-19T11:50:32.770Z,1.65
2022-09-19T11:53:32.973Z,1.90
2022-09-19T11:56:28.922Z,1.60
2022-09-19T11:59:07.408Z,1.75
2022-09-19T12:01:46.035Z,1.83
2022-09-19T12:04:27.799Z,1.50
2022-09-19T12:07:13.335Z,1.90
2022-09-19T12:09:50.782Z,1.58
2022-09-19T12:12:23.012Z,1.90
2022-09-19T12:14:59.285Z,2.00
2022-09-19T12:17:33.685Z,1.55
2022-09-19T12:20:15.454Z,2.13
2022-09-19T12:22:52.583Z,2.00
2022-09-19T12:25:24.404Z,2.15
2022-09-19T12:27:56.606Z,2.15
2022-09-19T12:30:26.580Z,2.35
2022-09-19T12:33:03.459Z,1.98
2022-09-19T12:35:42.077Z,1.60
2022-09-19T12:38:25.978Z,2.13
2022-09-19T12:41:01.509Z,2.33
2022-09-19T12:43:40.307Z,2.00
2022-09-19T12:46:30.535Z,2.20
2022-09-19T12:49:04.613Z,2.53
2022-09-19T12:51:47.388Z,1.98
2022-09-19T12:54:21.505Z,1.73
2022-09-19T12:56:58.845Z,1.50
2022-09-19T12:59:28.950Z,2.60
2022-09-19T13:02:01.078Z,1.23
2022-09-19T13:04:38.245Z,0.80
2022-09-19T13:07:11.815Z,1.20
2022-09-19T13:09:52.147Z,1.00
2022-09-19T13:12:26.674Z,0.70
2022-09-19T13:14:58.431Z,0.85
2022-09-19T13:17:45.734Z,0.50
2022-09-19T13:20:37.816Z,0.98
2022-09-19T13:23:24.372Z,0.52
2022-09-19T13:25:53.699Z,0.55
2022-09-19T13:28:29.311Z,1.15
2022-09-19T13:31:13.769Z,0.70
2022-09-19T13:33:51.870Z,0.90
2022-09-19T13:36:41.957Z,1.00
2022-09-19T13:39:43.201Z,2.30
2022-09-19T13:42:15.790Z,0.70
2022-09-19T13:44:50.760Z,0.63
2022-09-19T13:47:30.061Z,0.82
2022-09-19T13:50:06.193Z,0.80
2022-09-19T13:52:44.583Z,0.50
2022-09-19T13:55:34.092Z,1.05
2022-09-19T13:58:19.885Z,0.80
2022-09-19T14:01:08.907Z,1.05
2022-09-19T14:03:41.408Z,0.88
2022-09-19T14:06:25.439Z,0.80
2022-09-19T14:12:46.586Z,0.77
2022-09-19T14:15:49.526Z,1.42
2022-09-19T14:18:33.308Z,0.60
2022-09-19T14:21:03.312Z,1.02
2022-09-19T14:23:34.111Z,0.70
2022-09-19T14:26:04.975Z,0.70
2022-09-19T14:28:47.733Z,0.85
2022-09-19T14:31:37.277Z,0.93
2022-09-19T14:34:40.675Z,0.77
2022-09-19T14:37:36.344Z,0.60
2022-09-19T14:40:25.812Z,1.10
2022-09-19T14:43:33.667Z,1.17
2022-09-19T14:46:23.637Z,1.02
2022-09-19T14:49:05.110Z,1.52
2022-09-19T14:51:43.555Z,1.20
2022-09-19T14:54:20.681Z,1.55
2022-09-19T14:57:04.853Z,1.25
2022-09-19T14:59:36.623Z,1.00
2022-09-19T15:02:19.531Z,1.17
2022-09-19T15:04:50.300Z,1.20
2022-09-19T15:07:26.724Z,1.10
2022-09-19T15:09:55.424Z,1.60
2022-09-19T15:12:25.433Z,1.25
2022-09-19T15:14:57.542Z,1.67
2022-09-19T15:17:29.515Z,1.45
2022-09-19T15:20:00.618Z,1.10
2022-09-19T15:22:37.339Z,0.90
2022-09-19T15:25:09.561Z,1.20
2022-09-19T15:27:52.372Z,1.35
2022-09-19T15:30:23.466Z,1.48
2022-09-19T15:32:55.560Z,1.25
2022-09-19T15:35:28.954Z,1.10
2022-09-19T15:38:03.179Z,1.35
2022-09-19T15:40:35.517Z,1.33
2022-09-19T15:43:08.046Z,1.10
2022-09-19T15:45:44.620Z,1.02
2022-09-19T15:48:46.164Z,1.02
2022-09-19T15:51:29.547Z,1.30
2022-09-19T15:53:59.332Z,0.75
2022-09-19T15:56:28.510Z,0.90
2022-09-19T15:59:00.226Z,1.10
2022-09-19T16:01:32.541Z,1.33
2022-09-19T16:04:06.947Z,1.38
2022-09-19T16:06:55.881Z,2.25
2022-09-19T16:09:38.367Z,1.50
2022-09-19T16:12:35.483Z,1.50
2022-09-19T16:15:18.501Z,3.80
2022-09-19T16:18:19.005Z,1.83
2022-09-19T16:20:57.502Z,1.73
2022-09-19T16:23:29.505Z,1.30
2022-09-19T16:26:00.977Z,1.05
2022-09-19T16:28:33.334Z,0.93
2022-09-19T16:31:12.061Z,0.93
2022-09-19T16:33:44.011Z,0.90
2022-09-19T16:36:14.947Z,0.80
2022-09-19T16:39:09.716Z,0.90
2022-09-19T16:41:44.759Z,0.98
2022-09-19T16:44:36.850Z,1.10
2022-09-19T16:47:16.808Z,0.90
2022-09-19T16:49:45.970Z,0.80
2022-09-19T16:52:24.248Z,0.90
2022-09-19T16:54:53.982Z,1.10
2022-09-19T16:57:24.124Z,1.08
2022-09-19T16:59:55.849Z,1.15
2022-09-19T17:02:26.940Z,1.00
2022-09-19T17:04:56.574Z,1.00
2022-09-19T17:07:24.938Z,1.20
2022-09-19T17:09:54.090Z,1.35
2022-09-19T17:12:25.276Z,1.42
2022-09-19T17:14:53.689Z,1.33
2022-09-19T17:17:22.397Z,1.23
2022-09-19T17:19:50.641Z,1.20
2022-09-19T17:22:21.677Z,1.38
2022-09-19T17:24:50.344Z,1.65
2022-09-19T17:27:18.567Z,1.05
2022-09-19T17:29:52.209Z,1.30
2022-09-19T17:32:27.033Z,1.33
2022-09-19T17:34:55.492Z,1.17
2022-09-19T17:37:31.038Z,1.25
2022-09-19T17:39:59.989Z,1.10
2022-09-19T17:42:37.236Z,1.02
2022-09-19T17:45:07.634Z,1.35
2022-09-19T17:47:44.866Z,1.15
2022-09-19T17:50:25.449Z,1.25
2022-09-19T17:52:53.647Z,1.00
2022-09-19T17:55:21.976Z,1.05
2022-09-19T17:57:50.852Z,0.80
2022-09-19T18:00:20.766Z,1.17
2022-09-19T18:03:12.639Z,1.13
2022-09-19T18:05:41.090Z,0.90
2022-09-19T18:08:10.798Z,1.02
2022-09-19T18:10:39.458Z,1.02
2022-09-19T18:13:13.728Z,1.02
2022-09-19T18:15:43.729Z,1.00
2022-09-19T18:18:13.358Z,1.15
2022-09-19T18:20:41.701Z,1.00
2022-09-19T18:23:19.046Z,0.88
2022-09-19T18:25:47.323Z,1.13
2022-09-19T18:28:18.575Z,0.95
2022-09-19T18:31:07.666Z,0.73
2022-09-19T18:33:36.136Z,1.73
2022-09-19T18:36:57.388Z,1.15
2022-09-19T18:39:25.614Z,1.10
2022-09-19T18:41:53.944Z,0.63
2022-09-19T18:44:22.655Z,0.90
2022-09-19T18:46:52.186Z,0.85
2022-09-19T18:49:30.590Z,0.90
2022-09-19T18:52:00.048Z,0.63
2022-09-19T18:54:29.029Z,1.30
2022-09-19T18:56:57.424Z,0.95
2022-09-19T18:59:26.153Z,0.93
2022-09-19T19:01:57.210Z,1.10
2022-09-19T19:04:25.789Z,1.00
2022-09-19T19:06:56.814Z,1.17
2022-09-19T19:09:25.176Z,0.80
2022-09-19T19:12:00.357Z,0.90
2022-09-19T19:14:39.276Z,1.33
2022-09-19T19:17:08.896Z,1.20
2022-09-19T19:19:37.213Z,0.95
2022-09-19T19:22:05.589Z,1.58
2022-09-19T19:24:33.843Z,1.60
2022-09-19T19:27:02.117Z,1.30
2022-09-19T19:29:32.616Z,1.10
2022-09-19T19:32:02.528Z,0.90
2022-09-19T19:34:32.222Z,1.65
2022-09-19T19:37:01.482Z,0.90
2022-09-19T19:39:29.790Z,1.42
2022-09-19T19:41:58.201Z,1.42
2022-09-19T19:44:26.864Z,1.10
2022-09-19T19:46:55.120Z,1.92
2022-09-19T19:49:23.367Z,2.00
2022-09-19T19:52:58.922Z,1.17
2022-09-19T19:55:28.567Z,1.10
2022-09-19T19:57:56.857Z,1.30
2022-09-19T20:00:25.072Z,1.55
2022-09-19T20:02:58.191Z,1.48
2022-09-19T20:05:29.508Z,1.17
2022-09-19T20:07:57.814Z,1.27
2022-09-19T20:10:27.099Z,1.80
